sensor_id;sensor_type;location;lat;lon;timestamp;P1;durP1;ratioP1;P2;durP2;ratioP2
21175;SDS011;10746;50.178;8.186;2022-07-06T00:01:14;3.88;;;2.60;;
21175;SDS011;10746;50.178;8.186;2022-07-06T00:03:42;3.45;;;2.40;;
21175;SDS011;10746;50.178;8.186;2022-07-06T00:06:10;2.55;;;2.35;;
21175;SDS011;10746;50.178;8.186;2022-07-06T00:08:37;4.20;;;2.60;;
21175;SDS011;10746;50.178;8.186;2022-07-06T00:11:04;3.33;;;2.30;;
21175;SDS011;10746;50.178;8.186;2022-07-06T00:13:31;3.22;;;2.33;;
21175;SDS011;10746;50.178;8.186;2022-07-06T00:15:58;7.40;;;2.72;;
21175;SDS011;10746;50.178;8.186;2022-07-06T00:18:25;3.42;;;2.45;;
21175;SDS011;10746;50.178;8.186;2022-07-06T00:20:51;2.78;;;2.35;;
21175;SDS011;10746;50.178;8.186;2022-07-06T00:23:19;6.78;;;2.80;;
21175;SDS011;10746;50.178;8.186;2022-07-06T00:25:47;4.75;;;2.22;;
21175;SDS011;10746;50.178;8.186;2022-07-06T00:28:14;4.80;;;2.97;;
21175;SDS011;10746;50.178;8.186;2022-07-06T00:30:40;4.85;;;2.47;;
21175;SDS011;10746;50.178;8.186;2022-07-06T00:33:07;2.97;;;2.58;;
21175;SDS011;10746;50.178;8.186;2022-07-06T00:35:34;6.18;;;2.45;;
21175;SDS011;10746;50.178;8.186;2022-07-06T00:38:00;4.40;;;2.60;;
21175;SDS011;10746;50.178;8.186;2022-07-06T00:40:29;3.50;;;2.78;;
21175;SDS011;10746;50.178;8.186;2022-07-06T00:42:56;4.72;;;2.65;;
21175;SDS011;10746;50.178;8.186;2022-07-06T00:45:23;2.95;;;2.60;;
21175;SDS011;10746;50.178;8.186;2022-07-06T00:47:50;3.97;;;2.58;;
21175;SDS011;10746;50.178;8.186;2022-07-06T00:50:16;2.50;;;2.20;;
21175;SDS011;10746;50.178;8.186;2022-07-06T00:52:46;6.20;;;2.60;;
21175;SDS011;10746;50.178;8.186;2022-07-06T00:55:14;3.92;;;2.40;;
21175;SDS011;10746;50.178;8.186;2022-07-06T00:57:44;4.82;;;2.50;;
21175;SDS011;10746;50.178;8.186;2022-07-06T01:00:12;2.40;;;2.17;;
21175;SDS011;10746;50.178;8.186;2022-07-06T01:02:41;2.72;;;2.33;;
21175;SDS011;10746;50.178;8.186;2022-07-06T01:05:09;2.97;;;2.10;;
21175;SDS011;10746;50.178;8.186;2022-07-06T01:07:37;2.38;;;2.15;;
21175;SDS011;10746;50.178;8.186;2022-07-06T01:10:06;3.83;;;2.38;;
21175;SDS011;10746;50.178;8.186;2022-07-06T01:12:35;2.55;;;2.35;;
21175;SDS011;10746;50.178;8.186;2022-07-06T01:15:04;2.85;;;2.25;;
21175;SDS011;10746;50.178;8.186;2022-07-06T01:17:33;2.85;;;2.35;;
21175;SDS011;10746;50.178;8.186;2022-07-06T01:20:06;3.55;;;2.70;;
21175;SDS011;10746;50.178;8.186;2022-07-06T01:22:34;3.50;;;2.00;;
21175;SDS011;10746;50.178;8.186;2022-07-06T01:25:01;7.13;;;2.20;;
21175;SDS011;10746;50.178;8.186;2022-07-06T01:27:29;3.17;;;2.13;;
21175;SDS011;10746;50.178;8.186;2022-07-06T01:29:56;3.33;;;2.33;;
21175;SDS011;10746;50.178;8.186;2022-07-06T01:32:24;2.70;;;2.50;;
21175;SDS011;10746;50.178;8.186;2022-07-06T01:34:51;3.40;;;2.28;;
21175;SDS011;10746;50.178;8.186;2022-07-06T01:37:19;6.25;;;2.10;;
21175;SDS011;10746;50.178;8.186;2022-07-06T01:39:45;3.55;;;2.35;;
21175;SDS011;10746;50.178;8.186;2022-07-06T01:42:12;7.43;;;2.00;;
21175;SDS011;10746;50.178;8.186;2022-07-06T01:44:39;3.83;;;2.40;;
21175;SDS011;10746;50.178;8.186;2022-07-06T01:47:05;2.55;;;2.13;;
21175;SDS011;10746;50.178;8.186;2022-07-06T01:49:32;5.10;;;2.25;;
21175;SDS011;10746;50.178;8.186;2022-07-06T01:51:59;7.07;;;2.47;;
21175;SDS011;10746;50.178;8.186;2022-07-06T01:54:27;3.70;;;2.25;;
21175;SDS011;10746;50.178;8.186;2022-07-06T01:56:54;3.05;;;2.42;;
21175;SDS011;10746;50.178;8.186;2022-07-06T01:59:20;2.70;;;2.50;;
21175;SDS011;10746;50.178;8.186;2022-07-06T02:01:47;5.65;;;3.03;;
21175;SDS011;10746;50.178;8.186;2022-07-06T02:04:14;2.55;;;2.35;;
21175;SDS011;10746;50.178;8.186;2022-07-06T02:06:40;3.80;;;2.25;;
21175;SDS011;10746;50.178;8.186;2022-07-06T02:09:07;9.82;;;2.92;;
21175;SDS011;10746;50.178;8.186;2022-07-06T02:11:35;2.95;;;2.33;;
21175;SDS011;10746;50.178;8.186;2022-07-06T02:14:02;6.50;;;2.60;;
21175;SDS011;10746;50.178;8.186;2022-07-06T02:16:29;4.07;;;2.40;;
21175;SDS011;10746;50.178;8.186;2022-07-06T02:18:55;4.30;;;2.40;;
21175;SDS011;10746;50.178;8.186;2022-07-06T02:21:22;2.45;;;2.17;;
21175;SDS011;10746;50.178;8.186;2022-07-06T02:23:49;2.88;;;2.65;;
21175;SDS011;10746;50.178;8.186;2022-07-06T02:26:16;5.40;;;2.72;;
21175;SDS011;10746;50.178;8.186;2022-07-06T02:28:44;2.58;;;2.25;;
21175;SDS011;10746;50.178;8.186;2022-07-06T02:31:12;3.50;;;2.45;;
21175;SDS011;10746;50.178;8.186;2022-07-06T02:33:39;3.60;;;2.90;;
21175;SDS011;10746;50.178;8.186;2022-07-06T02:36:06;6.05;;;2.80;;
21175;SDS011;10746;50.178;8.186;2022-07-06T02:38:33;3.17;;;2.88;;
21175;SDS011;10746;50.178;8.186;2022-07-06T02:41:00;4.43;;;2.97;;
21175;SDS011;10746;50.178;8.186;2022-07-06T02:43:26;5.53;;;2.85;;
21175;SDS011;10746;50.178;8.186;2022-07-06T02:45:54;6.38;;;3.25;;
21175;SDS011;10746;50.178;8.186;2022-07-06T02:48:21;4.63;;;3.35;;
21175;SDS011;10746;50.178;8.186;2022-07-06T02:50:48;4.22;;;2.78;;
21175;SDS011;10746;50.178;8.186;2022-07-06T02:53:14;6.30;;;2.92;;
21175;SDS011;10746;50.178;8.186;2022-07-06T02:55:43;3.60;;;3.30;;
21175;SDS011;10746;50.178;8.186;2022-07-06T02:58:09;3.90;;;3.55;;
21175;SDS011;10746;50.178;8.186;2022-07-06T03:00:36;4.72;;;3.17;;
21175;SDS011;10746;50.178;8.186;2022-07-06T03:03:04;5.50;;;3.13;;
21175;SDS011;10746;50.178;8.186;2022-07-06T03:05:32;5.85;;;3.45;;
21175;SDS011;10746;50.178;8.186;2022-07-06T03:07:58;5.32;;;3.42;;
21175;SDS011;10746;50.178;8.186;2022-07-06T03:10:25;9.55;;;3.67;;
21175;SDS011;10746;50.178;8.186;2022-07-06T03:12:51;8.43;;;3.55;;
21175;SDS011;10746;50.178;8.186;2022-07-06T03:15:18;6.30;;;3.40;;
21175;SDS011;10746;50.178;8.186;2022-07-06T03:17:45;5.00;;;3.63;;
21175;SDS011;10746;50.178;8.186;2022-07-06T03:20:13;5.00;;;3.55;;
21175;SDS011;10746;50.178;8.186;2022-07-06T03:22:40;6.60;;;4.10;;
21175;SDS011;10746;50.178;8.186;2022-07-06T03:25:06;5.80;;;3.95;;
21175;SDS011;10746;50.178;8.186;2022-07-06T03:27:34;8.85;;;4.03;;
21175;SDS011;10746;50.178;8.186;2022-07-06T03:30:01;5.45;;;3.65;;
21175;SDS011;10746;50.178;8.186;2022-07-06T03:32:28;8.57;;;5.15;;
21175;SDS011;10746;50.178;8.186;2022-07-06T03:34:56;10.20;;;4.78;;
21175;SDS011;10746;50.178;8.186;2022-07-06T03:37:24;11.45;;;4.47;;
21175;SDS011;10746;50.178;8.186;2022-07-06T03:39:51;5.35;;;3.95;;
21175;SDS011;10746;50.178;8.186;2022-07-06T03:42:18;8.77;;;4.38;;
21175;SDS011;10746;50.178;8.186;2022-07-06T03:44:44;12.93;;;5.15;;
21175;SDS011;10746;50.178;8.186;2022-07-06T03:47:11;9.20;;;4.50;;
21175;SDS011;10746;50.178;8.186;2022-07-06T03:49:38;7.80;;;4.20;;
21175;SDS011;10746;50.178;8.186;2022-07-06T03:52:05;11.00;;;4.40;;
21175;SDS011;10746;50.178;8.186;2022-07-06T03:54:33;8.63;;;4.40;;
21175;SDS011;10746;50.178;8.186;2022-07-06T03:56:59;8.30;;;4.57;;
21175;SDS011;10746;50.178;8.186;2022-07-06T03:59:26;9.75;;;4.50;;
21175;SDS011;10746;50.178;8.186;2022-07-06T04:01:53;6.70;;;4.20;;
21175;SDS011;10746;50.178;8.186;2022-07-06T04:04:20;5.32;;;3.70;;
21175;SDS011;10746;50.178;8.186;2022-07-06T04:06:46;8.07;;;3.42;;
21175;SDS011;10746;50.178;8.186;2022-07-06T04:09:13;7.93;;;4.25;;
21175;SDS011;10746;50.178;8.186;2022-07-06T04:11:41;7.40;;;4.10;;
21175;SDS011;10746;50.178;8.186;2022-07-06T04:14:08;5.28;;;4.22;;
21175;SDS011;10746;50.178;8.186;2022-07-06T04:16:34;12.23;;;4.05;;
21175;SDS011;10746;50.178;8.186;2022-07-06T04:19:01;7.00;;;3.88;;
21175;SDS011;10746;50.178;8.186;2022-07-06T04:21:28;5.57;;;4.35;;
21175;SDS011;10746;50.178;8.186;2022-07-06T04:23:55;6.93;;;4.47;;
21175;SDS011;10746;50.178;8.186;2022-07-06T04:26:21;5.00;;;3.95;;
21175;SDS011;10746;50.178;8.186;2022-07-06T04:28:50;8.73;;;4.22;;
21175;SDS011;10746;50.178;8.186;2022-07-06T04:31:16;7.15;;;3.92;;
21175;SDS011;10746;50.178;8.186;2022-07-06T04:33:43;9.55;;;4.07;;
21175;SDS011;10746;50.178;8.186;2022-07-06T04:36:10;6.70;;;4.00;;
21175;SDS011;10746;50.178;8.186;2022-07-06T04:38:37;9.70;;;4.35;;
21175;SDS011;10746;50.178;8.186;2022-07-06T04:41:03;5.25;;;3.75;;
21175;SDS011;10746;50.178;8.186;2022-07-06T04:43:30;7.63;;;3.80;;
21175;SDS011;10746;50.178;8.186;2022-07-06T04:45:58;7.65;;;4.22;;
21175;SDS011;10746;50.178;8.186;2022-07-06T04:48:26;7.85;;;4.03;;
21175;SDS011;10746;50.178;8.186;2022-07-06T04:50:53;7.07;;;3.72;;
21175;SDS011;10746;50.178;8.186;2022-07-06T04:53:20;8.20;;;3.88;;
21175;SDS011;10746;50.178;8.186;2022-07-06T04:55:46;6.07;;;3.72;;
21175;SDS011;10746;50.178;8.186;2022-07-06T04:58:13;5.75;;;4.60;;
21175;SDS011;10746;50.178;8.186;2022-07-06T05:00:40;5.57;;;3.90;;
21175;SDS011;10746;50.178;8.186;2022-07-06T05:03:08;10.77;;;4.03;;
21175;SDS011;10746;50.178;8.186;2022-07-06T05:05:34;9.13;;;4.20;;
21175;SDS011;10746;50.178;8.186;2022-07-06T05:08:01;8.25;;;4.22;;
21175;SDS011;10746;50.178;8.186;2022-07-06T05:10:28;7.82;;;4.07;;
21175;SDS011;10746;50.178;8.186;2022-07-06T05:12:56;7.70;;;4.32;;
21175;SDS011;10746;50.178;8.186;2022-07-06T05:15:23;6.63;;;3.83;;
21175;SDS011;10746;50.178;8.186;2022-07-06T05:17:49;6.53;;;3.92;;
21175;SDS011;10746;50.178;8.186;2022-07-06T05:20:18;9.27;;;4.60;;
21175;SDS011;10746;50.178;8.186;2022-07-06T05:22:44;8.52;;;4.53;;
21175;SDS011;10746;50.178;8.186;2022-07-06T05:25:11;10.68;;;4.53;;
21175;SDS011;10746;50.178;8.186;2022-07-06T05:27:38;11.82;;;3.78;;
21175;SDS011;10746;50.178;8.186;2022-07-06T05:30:05;5.55;;;3.97;;
21175;SDS011;10746;50.178;8.186;2022-07-06T05:32:32;6.40;;;3.90;;
21175;SDS011;10746;50.178;8.186;2022-07-06T05:34:59;13.20;;;4.15;;
21175;SDS011;10746;50.178;8.186;2022-07-06T05:37:27;6.72;;;3.55;;
21175;SDS011;10746;50.178;8.186;2022-07-06T05:39:54;8.38;;;4.20;;
21175;SDS011;10746;50.178;8.186;2022-07-06T05:42:20;7.30;;;4.28;;
21175;SDS011;10746;50.178;8.186;2022-07-06T05:44:47;10.00;;;4.28;;
21175;SDS011;10746;50.178;8.186;2022-07-06T05:47:14;6.00;;;4.20;;
21175;SDS011;10746;50.178;8.186;2022-07-06T05:49:58;7.35;;;4.07;;
21175;SDS011;10746;50.178;8.186;2022-07-06T05:52:42;6.85;;;4.22;;
21175;SDS011;10746;50.178;8.186;2022-07-06T05:55:10;9.60;;;4.53;;
21175;SDS011;10746;50.178;8.186;2022-07-06T05:57:37;8.90;;;4.50;;
21175;SDS011;10746;50.178;8.186;2022-07-06T06:00:05;12.57;;;4.43;;
21175;SDS011;10746;50.178;8.186;2022-07-06T06:02:36;10.57;;;4.50;;
21175;SDS011;10746;50.178;8.186;2022-07-06T06:05:04;7.40;;;4.70;;
21175;SDS011;10746;50.178;8.186;2022-07-06T06:07:33;8.60;;;4.45;;
21175;SDS011;10746;50.178;8.186;2022-07-06T06:10:02;6.68;;;4.20;;
21175;SDS011;10746;50.178;8.186;2022-07-06T06:12:29;9.10;;;4.85;;
21175;SDS011;10746;50.178;8.186;2022-07-06T06:14:56;6.90;;;4.65;;
21175;SDS011;10746;50.178;8.186;2022-07-06T06:17:23;7.80;;;4.63;;
21175;SDS011;10746;50.178;8.186;2022-07-06T06:19:50;10.93;;;4.80;;
21175;SDS011;10746;50.178;8.186;2022-07-06T06:22:17;7.72;;;4.38;;
21175;SDS011;10746;50.178;8.186;2022-07-06T06:24:43;10.10;;;4.50;;
21175;SDS011;10746;50.178;8.186;2022-07-06T06:27:11;10.30;;;4.65;;
21175;SDS011;10746;50.178;8.186;2022-07-06T06:29:38;6.88;;;4.30;;
21175;SDS011;10746;50.178;8.186;2022-07-06T06:32:06;5.10;;;3.60;;
21175;SDS011;10746;50.178;8.186;2022-07-06T06:34:33;6.43;;;4.05;;
21175;SDS011;10746;50.178;8.186;2022-07-06T06:37:00;8.55;;;3.28;;
21175;SDS011;10746;50.178;8.186;2022-07-06T06:39:27;8.18;;;3.72;;
21175;SDS011;10746;50.178;8.186;2022-07-06T06:41:53;5.18;;;3.65;;
21175;SDS011;10746;50.178;8.186;2022-07-06T06:44:21;5.82;;;3.17;;
21175;SDS011;10746;50.178;8.186;2022-07-06T06:46:48;7.15;;;3.42;;
21175;SDS011;10746;50.178;8.186;2022-07-06T06:49:16;3.90;;;3.30;;
21175;SDS011;10746;50.178;8.186;2022-07-06T06:51:43;5.55;;;3.90;;
21175;SDS011;10746;50.178;8.186;2022-07-06T06:54:09;5.97;;;3.53;;
21175;SDS011;10746;50.178;8.186;2022-07-06T06:56:36;8.43;;;3.70;;
21175;SDS011;10746;50.178;8.186;2022-07-06T06:59:03;3.53;;;3.22;;
21175;SDS011;10746;50.178;8.186;2022-07-06T07:01:31;4.32;;;3.25;;
21175;SDS011;10746;50.178;8.186;2022-07-06T07:03:58;7.03;;;3.65;;
21175;SDS011;10746;50.178;8.186;2022-07-06T07:06:25;7.18;;;3.40;;
21175;SDS011;10746;50.178;8.186;2022-07-06T07:08:51;5.25;;;3.08;;
21175;SDS011;10746;50.178;8.186;2022-07-06T07:11:19;3.60;;;3.00;;
21175;SDS011;10746;50.178;8.186;2022-07-06T07:13:46;5.20;;;2.72;;
21175;SDS011;10746;50.178;8.186;2022-07-06T07:16:12;4.85;;;3.00;;
21175;SDS011;10746;50.178;8.186;2022-07-06T07:18:40;6.80;;;2.55;;
21175;SDS011;10746;50.178;8.186;2022-07-06T07:21:07;3.67;;;2.60;;
21175;SDS011;10746;50.178;8.186;2022-07-06T07:23:34;6.85;;;2.58;;
21175;SDS011;10746;50.178;8.186;2022-07-06T07:26:01;5.57;;;2.85;;
21175;SDS011;10746;50.178;8.186;2022-07-06T07:28:28;4.75;;;2.50;;
21175;SDS011;10746;50.178;8.186;2022-07-06T07:30:55;4.97;;;2.70;;
21175;SDS011;10746;50.178;8.186;2022-07-06T07:33:21;4.32;;;2.55;;
21175;SDS011;10746;50.178;8.186;2022-07-06T07:35:49;3.30;;;2.20;;
21175;SDS011;10746;50.178;8.186;2022-07-06T07:38:16;3.35;;;2.50;;
21175;SDS011;10746;50.178;8.186;2022-07-06T07:40:43;5.75;;;2.47;;
21175;SDS011;10746;50.178;8.186;2022-07-06T07:43:10;5.03;;;2.90;;
21175;SDS011;10746;50.178;8.186;2022-07-06T07:45:37;7.43;;;2.83;;
21175;SDS011;10746;50.178;8.186;2022-07-06T07:48:04;3.65;;;2.65;;
21175;SDS011;10746;50.178;8.186;2022-07-06T07:50:31;5.38;;;2.70;;
21175;SDS011;10746;50.178;8.186;2022-07-06T07:53:01;2.60;;;2.40;;
21175;SDS011;10746;50.178;8.186;2022-07-06T07:55:28;10.98;;;2.88;;
21175;SDS011;10746;50.178;8.186;2022-07-06T07:57:55;3.30;;;2.38;;
21175;SDS011;10746;50.178;8.186;2022-07-06T08:00:21;6.80;;;2.25;;
21175;SDS011;10746;50.178;8.186;2022-07-06T08:02:49;4.85;;;2.40;;
21175;SDS011;10746;50.178;8.186;2022-07-06T08:05:16;3.90;;;2.17;;
21175;SDS011;10746;50.178;8.186;2022-07-06T08:07:43;2.63;;;1.90;;
21175;SDS011;10746;50.178;8.186;2022-07-06T08:10:12;3.53;;;2.00;;
21175;SDS011;10746;50.178;8.186;2022-07-06T08:12:39;3.75;;;2.53;;
21175;SDS011;10746;50.178;8.186;2022-07-06T08:15:06;2.30;;;2.10;;
21175;SDS011;10746;50.178;8.186;2022-07-06T08:17:33;2.65;;;1.90;;
21175;SDS011;10746;50.178;8.186;2022-07-06T08:20:00;3.58;;;2.00;;
21175;SDS011;10746;50.178;8.186;2022-07-06T08:22:27;4.60;;;1.92;;
21175;SDS011;10746;50.178;8.186;2022-07-06T08:24:54;2.03;;;1.90;;
21175;SDS011;10746;50.178;8.186;2022-07-06T08:27:22;4.30;;;2.22;;
21175;SDS011;10746;50.178;8.186;2022-07-06T08:29:49;3.58;;;2.25;;
21175;SDS011;10746;50.178;8.186;2022-07-06T08:32:16;3.58;;;2.45;;
21175;SDS011;10746;50.178;8.186;2022-07-06T08:34:44;2.28;;;2.13;;
21175;SDS011;10746;50.178;8.186;2022-07-06T08:37:11;2.40;;;2.13;;
21175;SDS011;10746;50.178;8.186;2022-07-06T08:39:38;2.92;;;2.15;;
21175;SDS011;10746;50.178;8.186;2022-07-06T08:42:05;2.40;;;2.20;;
21175;SDS011;10746;50.178;8.186;2022-07-06T08:44:35;2.30;;;2.20;;
21175;SDS011;10746;50.178;8.186;2022-07-06T08:47:04;3.65;;;2.80;;
21175;SDS011;10746;50.178;8.186;2022-07-06T08:49:32;2.83;;;2.30;;
21175;SDS011;10746;50.178;8.186;2022-07-06T08:52:00;2.65;;;2.55;;
21175;SDS011;10746;50.178;8.186;2022-07-06T08:54:28;2.90;;;2.70;;
21175;SDS011;10746;50.178;8.186;2022-07-06T08:56:55;5.10;;;2.72;;
21175;SDS011;10746;50.178;8.186;2022-07-06T08:59:22;2.75;;;2.53;;
21175;SDS011;10746;50.178;8.186;2022-07-06T09:01:50;2.92;;;2.60;;
21175;SDS011;10746;50.178;8.186;2022-07-06T09:04:17;3.95;;;2.78;;
21175;SDS011;10746;50.178;8.186;2022-07-06T09:06:47;2.83;;;2.63;;
21175;SDS011;10746;50.178;8.186;2022-07-06T09:09:18;4.93;;;2.55;;
21175;SDS011;10746;50.178;8.186;2022-07-06T09:11:46;3.03;;;2.83;;
21175;SDS011;10746;50.178;8.186;2022-07-06T09:14:13;3.30;;;3.00;;
21175;SDS011;10746;50.178;8.186;2022-07-06T09:16:40;4.70;;;2.88;;
21175;SDS011;10746;50.178;8.186;2022-07-06T09:19:09;3.63;;;2.75;;
21175;SDS011;10746;50.178;8.186;2022-07-06T09:21:38;2.78;;;2.50;;
21175;SDS011;10746;50.178;8.186;2022-07-06T09:24:07;2.88;;;2.58;;
21175;SDS011;10746;50.178;8.186;2022-07-06T09:26:36;8.18;;;2.90;;
21175;SDS011;10746;50.178;8.186;2022-07-06T09:29:03;2.92;;;2.72;;
21175;SDS011;10746;50.178;8.186;2022-07-06T09:31:30;4.82;;;2.50;;
21175;SDS011;10746;50.178;8.186;2022-07-06T09:33:59;2.67;;;2.40;;
21175;SDS011;10746;50.178;8.186;2022-07-06T09:36:41;4.68;;;2.25;;
21175;SDS011;10746;50.178;8.186;2022-07-06T09:39:20;3.63;;;2.85;;
21175;SDS011;10746;50.178;8.186;2022-07-06T09:41:49;2.30;;;2.20;;
21175;SDS011;10746;50.178;8.186;2022-07-06T09:44:23;4.05;;;2.20;;
21175;SDS011;10746;50.178;8.186;2022-07-06T09:46:52;4.82;;;2.10;;
21175;SDS011;10746;50.178;8.186;2022-07-06T09:49:21;2.50;;;1.92;;
21175;SDS011;10746;50.178;8.186;2022-07-06T09:51:50;2.13;;;2.00;;
21175;SDS011;10746;50.178;8.186;2022-07-06T09:54:18;2.75;;;1.70;;
21175;SDS011;10746;50.178;8.186;2022-07-06T09:56:46;1.80;;;1.73;;
21175;SDS011;10746;50.178;8.186;2022-07-06T09:59:16;1.95;;;1.60;;
21175;SDS011;10746;50.178;8.186;2022-07-06T10:01:44;1.40;;;1.30;;
21175;SDS011;10746;50.178;8.186;2022-07-06T10:04:12;4.22;;;1.88;;
21175;SDS011;10746;50.178;8.186;2022-07-06T10:06:40;3.85;;;1.70;;
21175;SDS011;10746;50.178;8.186;2022-07-06T10:09:09;2.15;;;1.80;;
21175;SDS011;10746;50.178;8.186;2022-07-06T10:11:37;2.30;;;1.65;;
21175;SDS011;10746;50.178;8.186;2022-07-06T10:14:06;1.90;;;1.80;;
21175;SDS011;10746;50.178;8.186;2022-07-06T10:16:34;2.15;;;1.80;;
21175;SDS011;10746;50.178;8.186;2022-07-06T10:19:04;1.58;;;1.48;;
21175;SDS011;10746;50.178;8.186;2022-07-06T10:21:32;2.47;;;1.77;;
21175;SDS011;10746;50.178;8.186;2022-07-06T10:24:01;2.92;;;1.52;;
21175;SDS011;10746;50.178;8.186;2022-07-06T10:26:30;1.40;;;1.40;;
21175;SDS011;10746;50.178;8.186;2022-07-06T10:28:58;1.73;;;1.40;;
21175;SDS011;10746;50.178;8.186;2022-07-06T10:31:25;2.67;;;1.60;;
21175;SDS011;10746;50.178;8.186;2022-07-06T10:33:53;3.88;;;1.75;;
21175;SDS011;10746;50.178;8.186;2022-07-06T10:36:21;3.63;;;1.73;;
21175;SDS011;10746;50.178;8.186;2022-07-06T10:38:49;3.92;;;2.00;;
21175;SDS011;10746;50.178;8.186;2022-07-06T10:41:16;2.53;;;1.70;;
21175;SDS011;10746;50.178;8.186;2022-07-06T10:43:45;1.80;;;1.70;;
21175;SDS011;10746;50.178;8.186;2022-07-06T10:46:14;2.40;;;2.20;;
21175;SDS011;10746;50.178;8.186;2022-07-06T10:48:45;5.15;;;1.63;;
21175;SDS011;10746;50.178;8.186;2022-07-06T10:51:13;2.55;;;2.10;;
21175;SDS011;10746;50.178;8.186;2022-07-06T10:53:54;3.83;;;1.75;;
21175;SDS011;10746;50.178;8.186;2022-07-06T10:56:31;1.80;;;1.52;;
21175;SDS011;10746;50.178;8.186;2022-07-06T10:59:02;3.50;;;1.80;;
21175;SDS011;10746;50.178;8.186;2022-07-06T11:01:35;5.38;;;1.70;;
21175;SDS011;10746;50.178;8.186;2022-07-06T11:04:06;2.53;;;1.50;;
21175;SDS011;10746;50.178;8.186;2022-07-06T11:06:34;2.95;;;1.67;;
21175;SDS011;10746;50.178;8.186;2022-07-06T11:09:03;1.83;;;1.70;;
21175;SDS011;10746;50.178;8.186;2022-07-06T11:11:37;1.88;;;1.77;;
21175;SDS011;10746;50.178;8.186;2022-07-06T11:14:08;1.92;;;1.65;;
21175;SDS011;10746;50.178;8.186;2022-07-06T11:16:36;4.20;;;1.60;;
21175;SDS011;10746;50.178;8.186;2022-07-06T11:19:06;3.90;;;1.60;;
21175;SDS011;10746;50.178;8.186;2022-07-06T11:21:38;1.92;;;1.52;;
21175;SDS011;10746;50.178;8.186;2022-07-06T11:24:08;2.65;;;1.58;;
21175;SDS011;10746;50.178;8.186;2022-07-06T11:26:36;2.80;;;1.60;;
21175;SDS011;10746;50.178;8.186;2022-07-06T11:29:03;2.50;;;1.40;;
21175;SDS011;10746;50.178;8.186;2022-07-06T11:31:36;2.15;;;1.65;;
21175;SDS011;10746;50.178;8.186;2022-07-06T11:34:04;1.90;;;1.80;;
21175;SDS011;10746;50.178;8.186;2022-07-06T11:36:32;4.68;;;1.70;;
21175;SDS011;10746;50.178;8.186;2022-07-06T11:38:59;3.08;;;1.80;;
21175;SDS011;10746;50.178;8.186;2022-07-06T11:41:26;2.90;;;1.48;;
21175;SDS011;10746;50.178;8.186;2022-07-06T11:43:52;2.10;;;1.90;;
21175;SDS011;10746;50.178;8.186;2022-07-06T11:46:23;2.33;;;1.60;;
21175;SDS011;10746;50.178;8.186;2022-07-06T11:48:53;2.30;;;1.45;;
21175;SDS011;10746;50.178;8.186;2022-07-06T11:51:21;1.92;;;1.77;;
21175;SDS011;10746;50.178;8.186;2022-07-06T11:53:49;2.92;;;1.65;;
21175;SDS011;10746;50.178;8.186;2022-07-06T11:56:17;1.70;;;1.60;;
21175;SDS011;10746;50.178;8.186;2022-07-06T11:58:46;2.17;;;1.80;;
21175;SDS011;10746;50.178;8.186;2022-07-06T12:01:15;3.40;;;1.75;;
21175;SDS011;10746;50.178;8.186;2022-07-06T12:03:42;2.85;;;1.70;;
21175;SDS011;10746;50.178;8.186;2022-07-06T12:06:14;2.03;;;1.50;;
21175;SDS011;10746;50.178;8.186;2022-07-06T12:08:44;1.90;;;1.70;;
21175;SDS011;10746;50.178;8.186;2022-07-06T12:11:21;7.15;;;2.00;;
21175;SDS011;10746;50.178;8.186;2022-07-06T12:13:49;3.40;;;1.70;;
21175;SDS011;10746;50.178;8.186;2022-07-06T12:16:17;2.30;;;1.70;;
21175;SDS011;10746;50.178;8.186;2022-07-06T12:18:46;1.75;;;1.65;;
21175;SDS011;10746;50.178;8.186;2022-07-06T12:21:16;2.60;;;1.73;;
21175;SDS011;10746;50.178;8.186;2022-07-06T12:23:47;3.53;;;1.83;;
21175;SDS011;10746;50.178;8.186;2022-07-06T12:26:15;1.73;;;1.63;;
21175;SDS011;10746;50.178;8.186;2022-07-06T12:28:44;2.15;;;1.60;;
21175;SDS011;10746;50.178;8.186;2022-07-06T12:31:11;1.70;;;1.60;;
21175;SDS011;10746;50.178;8.186;2022-07-06T12:33:58;5.50;;;1.70;;
21175;SDS011;10746;50.178;8.186;2022-07-06T12:36:26;1.75;;;1.65;;
21175;SDS011;10746;50.178;8.186;2022-07-06T12:38:53;4.60;;;1.70;;
21175;SDS011;10746;50.178;8.186;2022-07-06T12:41:26;2.33;;;1.40;;
21175;SDS011;10746;50.178;8.186;2022-07-06T12:44:05;1.73;;;1.63;;
21175;SDS011;10746;50.178;8.186;2022-07-06T12:46:34;1.85;;;1.65;;
21175;SDS011;10746;50.178;8.186;2022-07-06T12:49:04;2.53;;;1.30;;
21175;SDS011;10746;50.178;8.186;2022-07-06T12:51:55;1.48;;;1.40;;
21175;SDS011;10746;50.178;8.186;2022-07-06T12:54:24;2.08;;;1.50;;
21175;SDS011;10746;50.178;8.186;2022-07-06T12:56:56;1.27;;;1.27;;
21175;SDS011;10746;50.178;8.186;2022-07-06T12:59:34;4.15;;;1.50;;
21175;SDS011;10746;50.178;8.186;2022-07-06T13:02:03;2.42;;;1.40;;
21175;SDS011;10746;50.178;8.186;2022-07-06T13:04:31;1.55;;;1.50;;
21175;SDS011;10746;50.178;8.186;2022-07-06T13:07:00;2.10;;;1.40;;
21175;SDS011;10746;50.178;8.186;2022-07-06T13:09:28;1.80;;;1.50;;
21175;SDS011;10746;50.178;8.186;2022-07-06T13:11:56;5.25;;;1.40;;
21175;SDS011;10746;50.178;8.186;2022-07-06T13:14:23;1.45;;;1.38;;
21175;SDS011;10746;50.178;8.186;2022-07-06T13:16:49;5.75;;;1.45;;
21175;SDS011;10746;50.178;8.186;2022-07-06T13:19:16;1.30;;;1.20;;
21175;SDS011;10746;50.178;8.186;2022-07-06T13:21:43;1.88;;;1.40;;
21175;SDS011;10746;50.178;8.186;2022-07-06T13:24:12;2.17;;;1.30;;
21175;SDS011;10746;50.178;8.186;2022-07-06T13:26:38;2.00;;;1.27;;
21175;SDS011;10746;50.178;8.186;2022-07-06T13:29:05;2.47;;;1.40;;
21175;SDS011;10746;50.178;8.186;2022-07-06T13:31:32;6.07;;;1.42;;
21175;SDS011;10746;50.178;8.186;2022-07-06T13:33:59;2.83;;;1.38;;
21175;SDS011;10746;50.178;8.186;2022-07-06T13:36:26;1.35;;;1.25;;
21175;SDS011;10746;50.178;8.186;2022-07-06T13:38:53;2.17;;;1.05;;
21175;SDS011;10746;50.178;8.186;2022-07-06T13:41:21;1.48;;;1.38;;
21175;SDS011;10746;50.178;8.186;2022-07-06T13:43:48;4.55;;;1.30;;
21175;SDS011;10746;50.178;8.186;2022-07-06T13:46:15;2.05;;;1.23;;
21175;SDS011;10746;50.178;8.186;2022-07-06T13:48:43;2.13;;;1.30;;
21175;SDS011;10746;50.178;8.186;2022-07-06T13:51:10;1.50;;;1.20;;
21175;SDS011;10746;50.178;8.186;2022-07-06T13:53:37;1.83;;;1.40;;
21175;SDS011;10746;50.178;8.186;2022-07-06T13:56:04;3.38;;;1.67;;
21175;SDS011;10746;50.178;8.186;2022-07-06T13:58:34;3.35;;;1.23;;
21175;SDS011;10746;50.178;8.186;2022-07-06T14:01:01;1.88;;;1.58;;
21175;SDS011;10746;50.178;8.186;2022-07-06T14:03:28;2.10;;;1.73;;
21175;SDS011;10746;50.178;8.186;2022-07-06T14:05:56;2.03;;;1.55;;
21175;SDS011;10746;50.178;8.186;2022-07-06T14:08:23;8.05;;;1.92;;
21175;SDS011;10746;50.178;8.186;2022-07-06T14:10:51;4.95;;;2.22;;
21175;SDS011;10746;50.178;8.186;2022-07-06T14:13:18;4.75;;;2.08;;
21175;SDS011;10746;50.178;8.186;2022-07-06T14:15:46;2.55;;;2.15;;
21175;SDS011;10746;50.178;8.186;2022-07-06T14:18:13;5.40;;;2.85;;
21175;SDS011;10746;50.178;8.186;2022-07-06T14:20:42;2.22;;;2.10;;
21175;SDS011;10746;50.178;8.186;2022-07-06T14:23:09;2.55;;;1.55;;
21175;SDS011;10746;50.178;8.186;2022-07-06T14:25:36;2.42;;;1.98;;
21175;SDS011;10746;50.178;8.186;2022-07-06T14:28:04;2.47;;;1.92;;
21175;SDS011;10746;50.178;8.186;2022-07-06T14:30:31;1.88;;;1.77;;
21175;SDS011;10746;50.178;8.186;2022-07-06T14:32:59;3.00;;;1.80;;
21175;SDS011;10746;50.178;8.186;2022-07-06T14:35:26;5.32;;;2.03;;
21175;SDS011;10746;50.178;8.186;2022-07-06T14:37:53;3.90;;;2.05;;
21175;SDS011;10746;50.178;8.186;2022-07-06T14:40:20;3.40;;;2.10;;
21175;SDS011;10746;50.178;8.186;2022-07-06T14:42:47;2.97;;;2.03;;
21175;SDS011;10746;50.178;8.186;2022-07-06T14:45:14;2.65;;;1.55;;
21175;SDS011;10746;50.178;8.186;2022-07-06T14:47:40;2.42;;;2.00;;
21175;SDS011;10746;50.178;8.186;2022-07-06T14:50:09;3.45;;;1.85;;
21175;SDS011;10746;50.178;8.186;2022-07-06T14:52:36;2.95;;;1.95;;